createdAt,value
2019-05-18T00:01:31.902Z,45.12
2019-05-18T00:03:58.075Z,44.97
2019-05-18T00:06:24.275Z,45.12
2019-05-18T00:08:50.425Z,45.70
2019-05-18T00:11:16.607Z,47.04
2019-05-18T00:13:42.890Z,47.52
2019-05-18T00:16:09.042Z,47.15
2019-05-18T00:18:35.218Z,46.21
2019-05-18T00:21:01.703Z,45.63
2019-05-18T00:23:28.015Z,45.91
2019-05-18T00:25:54.172Z,46.15
2019-05-18T00:28:20.385Z,45.96
2019-05-18T00:30:46.536Z,45.85
2019-05-18T00:33:12.718Z,45.52
2019-05-18T00:35:38.931Z,45.51
2019-05-18T00:38:05.086Z,45.18
2019-05-18T00:40:31.263Z,44.92
2019-05-18T00:42:57.470Z,44.70
2019-05-18T00:45:23.623Z,44.45
2019-05-18T00:47:49.804Z,45.30
2019-05-18T00:50:16.203Z,45.09
2019-05-18T00:52:42.396Z,44.28
2019-05-18T00:55:09.150Z,43.98
2019-05-18T00:57:35.340Z,44.39
2019-05-18T01:00:01.996Z,44.78
2019-05-18T01:02:28.178Z,45.08
2019-05-18T01:04:54.384Z,45.56
2019-05-18T01:07:20.537Z,45.66
2019-05-18T01:09:46.706Z,45.29
2019-05-18T01:12:12.911Z,45.03
2019-05-18T01:14:39.066Z,45.08
2019-05-18T01:17:05.239Z,45.06
2019-05-18T01:19:31.439Z,45.96
2019-05-18T01:21:57.655Z,45.80
2019-05-18T01:24:23.816Z,45.61
2019-05-18T01:26:50.036Z,45.08
2019-05-18T01:29:16.193Z,44.82
2019-05-18T01:31:42.359Z,44.87
2019-05-18T01:34:08.574Z,44.74
2019-05-18T01:36:34.726Z,44.63
2019-05-18T01:39:00.881Z,44.33
2019-05-18T01:41:27.092Z,44.25
2019-05-18T01:43:53.265Z,43.87
2019-05-18T01:46:19.431Z,43.50
2019-05-18T01:48:45.646Z,43.46
2019-05-18T01:51:11.791Z,43.76
2019-05-18T01:53:37.962Z,43.69
2019-05-18T01:56:04.151Z,43.54
2019-05-18T01:58:30.301Z,44.37
2019-05-18T02:00:56.487Z,44.60
2019-05-18T02:03:25.911Z,44.68
2019-05-18T02:05:50.752Z,44.20
2019-05-18T02:08:16.920Z,43.88
2019-05-18T02:10:43.117Z,43.98
2019-05-18T02:13:09.277Z,44.00
2019-05-18T02:15:35.449Z,44.28
2019-05-18T02:18:01.666Z,44.04
2019-05-18T02:20:27.832Z,44.70
2019-05-18T02:22:54.032Z,45.33
2019-05-18T02:25:20.255Z,45.52
2019-05-18T02:27:46.403Z,46.60
2019-05-18T02:30:16.991Z,47.36
2019-05-18T02:32:40.682Z,50.57
2019-05-18T02:35:07.139Z,50.24
2019-05-18T02:37:33.302Z,50.30
2019-05-18T02:39:59.503Z,48.11
2019-05-18T02:42:25.696Z,48.59
2019-05-18T02:44:51.830Z,48.40
2019-05-18T02:47:18.044Z,48.82
2019-05-18T02:49:44.195Z,47.40
2019-05-18T02:52:10.359Z,47.27
2019-05-18T02:54:36.555Z,46.49
2019-05-18T02:57:02.829Z,45.88
2019-05-18T02:59:30.026Z,47.98
2019-05-18T03:01:56.215Z,46.79
2019-05-18T03:04:22.389Z,46.22
2019-05-18T03:06:48.569Z,45.48
2019-05-18T03:09:14.765Z,45.21
2019-05-18T03:11:41.045Z,44.65
2019-05-18T03:14:07.299Z,44.33
2019-05-18T03:16:33.520Z,46.83
2019-05-18T03:19:08.423Z,45.61
2019-05-18T03:21:28.429Z,43.71
2019-05-18T03:23:55.175Z,41.86
2019-05-18T03:26:21.323Z,41.39
2019-05-18T03:28:47.502Z,41.78
2019-05-18T03:31:13.736Z,40.76
2019-05-18T03:33:39.867Z,41.13
2019-05-18T03:36:06.030Z,39.27
2019-05-18T03:38:33.043Z,37.21
2019-05-18T03:40:59.205Z,35.96
2019-05-18T03:43:25.385Z,37.75
2019-05-18T03:45:51.881Z,40.53
2019-05-18T03:48:18.060Z,39.27
2019-05-18T03:50:44.228Z,38.33
2019-05-18T03:53:10.418Z,36.99
2019-05-18T03:55:36.704Z,36.74
2019-05-18T03:58:02.899Z,34.41
2019-05-18T04:00:29.098Z,32.01
2019-05-18T04:02:55.263Z,32.12
2019-05-18T04:05:21.442Z,32.88
2019-05-18T04:07:47.638Z,32.89
2019-05-18T04:10:17.401Z,34.28
2019-05-18T04:12:43.591Z,34.67
2019-05-18T04:15:10.297Z,34.55
2019-05-18T04:17:36.445Z,36.25
2019-05-18T04:20:04.810Z,36.80
2019-05-18T04:22:31.025Z,36.68
2019-05-18T04:24:58.279Z,36.72
2019-05-18T04:27:24.468Z,36.75
2019-05-18T04:29:50.676Z,36.33
2019-05-18T04:32:16.828Z,35.43
2019-05-18T04:34:43.019Z,32.14
2019-05-18T04:37:09.201Z,30.59
2019-05-18T04:39:35.361Z,28.97
2019-05-18T04:42:01.533Z,27.97
2019-05-18T04:44:27.720Z,26.38
2019-05-18T04:46:54.210Z,24.75
2019-05-18T04:49:20.368Z,23.07
2019-05-18T04:51:46.570Z,21.43
2019-05-18T04:54:12.767Z,19.86
2019-05-18T04:56:42.706Z,19.56
2019-05-18T04:59:07.159Z,19.14
2019-05-18T05:01:33.327Z,19.10
2019-05-18T05:03:59.520Z,19.35
2019-05-18T05:06:25.697Z,19.21
2019-05-18T05:08:52.323Z,20.13
2019-05-18T05:11:18.501Z,21.70
2019-05-18T05:13:44.727Z,23.61
2019-05-18T05:16:11.883Z,26.95
2019-05-18T05:18:38.045Z,30.42
2019-05-18T05:21:04.260Z,30.20
2019-05-18T05:23:30.411Z,29.42
2019-05-18T05:25:56.591Z,31.08
2019-05-18T05:28:22.809Z,32.05
2019-05-18T05:30:48.960Z,32.16
2019-05-18T05:33:15.580Z,29.61
2019-05-18T05:35:41.797Z,27.10
2019-05-18T05:38:07.982Z,24.46
2019-05-18T05:40:34.137Z,22.62
2019-05-18T05:43:00.347Z,24.24
2019-05-18T05:45:26.512Z,22.80
2019-05-18T05:47:52.670Z,22.80
2019-05-18T05:50:33.040Z,23.26
2019-05-18T05:52:46.942Z,25.26
2019-05-18T05:55:13.219Z,25.35
2019-05-18T05:57:39.434Z,25.43
2019-05-18T06:00:07.095Z,23.67
2019-05-18T06:02:33.280Z,22.21
2019-05-18T06:04:59.481Z,22.90
2019-05-18T06:07:25.643Z,23.20
2019-05-18T06:09:51.828Z,22.65
2019-05-18T06:12:18.037Z,26.74
2019-05-18T06:14:44.196Z,27.46
2019-05-18T06:17:10.513Z,28.12
2019-05-18T06:19:36.716Z,27.90
2019-05-18T06:22:02.931Z,29.01
2019-05-18T06:24:29.116Z,28.62
2019-05-18T06:26:55.511Z,25.82
2019-05-18T06:29:21.763Z,25.00
2019-05-18T06:32:12.608Z,25.37
2019-05-18T06:34:38.788Z,25.52
2019-05-18T06:37:04.975Z,24.93
2019-05-18T06:39:31.257Z,23.66
2019-05-18T06:41:57.557Z,22.63
2019-05-18T06:44:24.028Z,22.37
2019-05-18T06:46:50.217Z,25.05
2019-05-18T06:49:16.404Z,27.75
2019-05-18T06:51:42.682Z,32.73
2019-05-18T06:54:08.916Z,31.37
2019-05-18T06:56:36.271Z,31.86
2019-05-18T06:59:02.452Z,33.03
2019-05-18T07:01:28.650Z,32.01
2019-05-18T07:03:54.832Z,34.02
2019-05-18T07:06:21.119Z,35.86
2019-05-18T07:08:47.309Z,33.48
2019-05-18T07:11:13.479Z,30.19
2019-05-18T07:13:39.642Z,30.53
2019-05-18T07:16:05.836Z,30.29
2019-05-18T07:18:32.018Z,29.65
2019-05-18T07:20:58.169Z,27.03
2019-05-18T07:23:24.417Z,30.00
2019-05-18T07:25:50.589Z,31.79
2019-05-18T07:28:16.797Z,34.20
2019-05-18T07:30:43.311Z,35.13
2019-05-18T07:33:09.479Z,34.78
2019-05-18T07:35:35.659Z,33.18
2019-05-18T07:38:01.948Z,34.05
2019-05-18T07:40:28.132Z,31.45
2019-05-18T07:42:54.314Z,33.58
2019-05-18T07:45:20.511Z,31.13
2019-05-18T07:47:46.683Z,31.98
2019-05-18T07:50:13.162Z,29.54
2019-05-18T07:52:39.350Z,28.66
2019-05-18T07:55:05.711Z,27.61
2019-05-18T07:57:31.910Z,26.86
2019-05-18T07:59:58.119Z,30.70
2019-05-18T08:02:24.401Z,28.31
2019-05-18T08:04:50.574Z,25.51
2019-05-18T08:07:16.782Z,28.10
2019-05-18T08:09:42.943Z,27.39
2019-05-18T08:12:09.113Z,28.32
2019-05-18T08:14:35.337Z,31.80
2019-05-18T08:17:01.486Z,29.90
2019-05-18T08:19:27.779Z,25.43
2019-05-18T08:21:53.987Z,24.60
2019-05-18T08:24:20.509Z,32.00
2019-05-18T08:26:46.683Z,31.85
2019-05-18T08:32:15.827Z,28.14
2019-05-18T08:34:43.714Z,32.15
2019-05-18T08:37:10.123Z,35.88
2019-05-18T08:39:36.439Z,32.76
2019-05-18T08:42:02.811Z,30.30
2019-05-18T08:44:29.148Z,30.09
2019-05-18T08:46:55.467Z,30.99
2019-05-18T08:49:22.116Z,31.52
2019-05-18T08:51:48.455Z,28.67
2019-05-18T08:54:14.812Z,28.78
2019-05-18T08:56:41.193Z,30.59
2019-05-18T08:59:07.521Z,29.80
2019-05-18T09:01:33.872Z,28.90
2019-05-18T09:04:00.219Z,25.95
2019-05-18T09:06:26.586Z,24.21
2019-05-18T09:08:52.867Z,24.18
2019-05-18T09:11:19.065Z,27.07
2019-05-18T09:13:45.252Z,27.47
2019-05-18T09:16:11.460Z,27.52
2019-05-18T09:18:37.679Z,24.36
2019-05-18T09:21:03.862Z,26.89
2019-05-18T09:23:30.047Z,30.50
2019-05-18T09:25:56.229Z,29.48
2019-05-18T09:28:22.404Z,28.01
2019-05-18T09:30:49.541Z,26.27
2019-05-18T09:33:15.746Z,29.76
2019-05-18T09:35:41.907Z,25.60
2019-05-18T09:38:08.086Z,24.53
2019-05-18T09:40:34.277Z,25.13
2019-05-18T09:43:00.456Z,27.56
2019-05-18T09:45:26.627Z,24.65
2019-05-18T09:47:52.818Z,23.52
2019-05-18T09:50:19.142Z,25.08
2019-05-18T09:52:46.377Z,27.67
2019-05-18T09:55:13.722Z,28.13
2019-05-18T09:57:39.901Z,27.14
2019-05-18T10:00:08.162Z,27.06
2019-05-18T10:02:34.370Z,27.76
2019-05-18T10:05:00.558Z,25.45
2019-05-18T10:07:26.723Z,25.76
2019-05-18T10:09:52.913Z,27.74
2019-05-18T10:12:19.079Z,28.52
2019-05-18T10:14:45.757Z,26.80
2019-05-18T10:17:11.943Z,28.43
2019-05-18T10:19:39.932Z,27.89
2019-05-18T10:22:06.105Z,27.25
2019-05-18T10:24:32.316Z,26.37
2019-05-18T10:26:58.467Z,25.33
2019-05-18T10:29:24.656Z,28.15
2019-05-18T10:31:50.866Z,28.99
2019-05-18T10:34:17.546Z,27.42
2019-05-18T10:36:43.728Z,28.64
2019-05-18T10:39:09.979Z,29.88
2019-05-18T10:41:36.193Z,27.43
2019-05-18T10:44:02.480Z,29.08
2019-05-18T10:46:28.697Z,29.63
2019-05-18T10:48:54.849Z,27.38
2019-05-18T10:51:21.006Z,26.82
2019-05-18T10:53:47.218Z,26.53
2019-05-18T10:56:13.376Z,26.05
2019-05-18T10:58:39.553Z,25.85
2019-05-18T11:01:05.860Z,26.49
2019-05-18T11:03:32.038Z,27.13
2019-05-18T11:05:58.212Z,28.27
2019-05-18T11:08:24.410Z,26.23
2019-05-18T11:10:50.591Z,24.46
2019-05-18T11:13:17.389Z,24.83
2019-05-18T11:15:43.867Z,23.76
2019-05-18T11:18:10.148Z,22.98
2019-05-18T11:20:36.326Z,25.44
2019-05-18T11:23:02.722Z,26.94
2019-05-18T11:25:29.816Z,26.18
2019-05-18T11:27:56.030Z,27.29
2019-05-18T11:30:23.126Z,28.85
2019-05-18T11:32:49.332Z,28.48
2019-05-18T11:35:16.509Z,27.73
2019-05-18T11:37:42.702Z,27.32
2019-05-18T11:40:10.777Z,26.79
2019-05-18T11:42:36.969Z,29.08
2019-05-18T11:45:12.652Z,26.90
2019-05-18T11:47:39.010Z,25.47
2019-05-18T11:50:06.379Z,26.93
2019-05-18T11:52:32.599Z,25.99
2019-05-18T11:54:58.758Z,26.17
2019-05-18T11:57:24.934Z,26.27
2019-05-18T11:59:51.236Z,25.10
2019-05-18T12:02:17.393Z,23.74
2019-05-18T12:04:43.555Z,25.22
2019-05-18T12:07:09.867Z,25.47
2019-05-18T12:09:36.057Z,27.00
2019-05-18T12:12:02.237Z,25.12
2019-05-18T12:14:28.452Z,23.84
2019-05-18T12:16:54.595Z,25.26
2019-05-18T12:19:20.757Z,25.61
2019-05-18T12:21:46.975Z,25.37
2019-05-18T12:24:15.734Z,26.74
2019-05-18T12:26:41.313Z,27.70
2019-05-18T12:29:09.421Z,27.14
2019-05-18T12:31:35.580Z,26.34
2019-05-18T12:34:01.801Z,27.18
2019-05-18T12:36:28.009Z,25.39
2019-05-18T12:38:54.167Z,23.39
2019-05-18T12:41:22.247Z,22.27
2019-05-18T12:43:48.452Z,24.43
2019-05-18T12:46:14.611Z,23.74
2019-05-18T12:48:40.864Z,23.27
2019-05-18T12:51:07.102Z,25.72
2019-05-18T12:53:33.261Z,24.18
2019-05-18T12:55:59.491Z,25.52
2019-05-18T12:58:25.694Z,27.10
2019-05-18T13:00:51.877Z,25.81
2019-05-18T13:03:18.019Z,27.49
2019-05-18T13:05:44.238Z,27.06
2019-05-18T13:08:10.414Z,25.66
2019-05-18T13:10:36.601Z,25.96
2019-05-18T13:13:02.832Z,26.96
2019-05-18T13:15:28.978Z,27.36
2019-05-18T13:17:55.132Z,25.48
2019-05-18T13:20:21.494Z,24.73
2019-05-18T13:22:47.669Z,24.08
2019-05-18T13:25:14.521Z,25.38
2019-05-18T13:27:40.721Z,26.53
2019-05-18T13:30:09.102Z,28.58
2019-05-18T13:32:35.265Z,28.94
2019-05-18T13:35:01.528Z,30.69
2019-05-18T13:37:27.698Z,29.75
2019-05-18T13:39:53.961Z,30.03
2019-05-18T13:42:20.174Z,29.35
2019-05-18T13:44:46.333Z,28.45
2019-05-18T13:47:12.485Z,29.15
2019-05-18T13:49:38.721Z,28.30
2019-05-18T13:52:05.004Z,30.07
2019-05-18T13:54:31.160Z,28.61
2019-05-18T13:56:57.367Z,27.92
2019-05-18T13:59:23.529Z,28.15
2019-05-18T14:01:49.680Z,27.71
2019-05-18T14:04:15.914Z,27.05
2019-05-18T14:06:42.097Z,27.12
2019-05-18T14:09:08.442Z,27.26
2019-05-18T14:11:34.692Z,27.06
2019-05-18T14:14:00.843Z,25.54
2019-05-18T14:16:27.114Z,27.20
2019-05-18T14:18:53.325Z,28.46
2019-05-18T14:21:19.514Z,26.30
2019-05-18T14:23:45.687Z,26.42
2019-05-18T14:26:11.873Z,26.41
2019-05-18T14:28:38.044Z,25.34
2019-05-18T14:31:04.203Z,26.06
2019-05-18T14:33:30.461Z,25.96
2019-05-18T14:35:56.677Z,27.98
2019-05-18T14:38:22.830Z,26.38
2019-05-18T14:40:49.023Z,26.57
2019-05-18T14:43:15.206Z,26.14
2019-05-18T14:45:41.391Z,26.54
2019-05-18T14:48:07.589Z,26.77
2019-05-18T14:50:33.768Z,26.96
2019-05-18T14:52:59.920Z,25.67
2019-05-18T14:55:33.786Z,24.70
2019-05-18T14:57:54.207Z,24.68
2019-05-18T15:00:20.958Z,26.76
2019-05-18T15:02:47.930Z,25.93
2019-05-18T15:05:14.162Z,25.16
2019-05-18T15:07:40.326Z,24.30
2019-05-18T15:10:07.857Z,25.00
2019-05-18T15:12:34.016Z,24.93
2019-05-18T15:15:01.152Z,24.32
2019-05-18T15:17:27.371Z,24.77
2019-05-18T15:19:53.569Z,24.77
2019-05-18T15:22:19.706Z,26.16
2019-05-18T15:24:45.892Z,27.29
2019-05-18T15:27:12.085Z,26.22
2019-05-18T15:29:38.248Z,26.81
2019-05-18T15:32:04.449Z,27.14
2019-05-18T15:34:30.628Z,26.55
2019-05-18T15:36:56.835Z,26.97
2019-05-18T15:39:23.036Z,26.02
2019-05-18T15:41:49.213Z,25.65
2019-05-18T15:44:15.387Z,26.01
2019-05-18T15:46:41.604Z,26.30
2019-05-18T15:49:08.062Z,27.74
2019-05-18T15:51:34.354Z,27.42
2019-05-18T15:54:00.647Z,27.44
2019-05-18T15:56:27.036Z,27.10
2019-05-18T15:58:53.216Z,27.42
2019-05-18T16:01:19.653Z,27.17
2019-05-18T16:03:45.919Z,26.71
2019-05-18T16:06:12.209Z,25.92
2019-05-18T16:08:38.410Z,25.43
2019-05-18T16:11:04.588Z,27.06
2019-05-18T16:13:30.780Z,27.06
2019-05-18T16:15:56.964Z,26.86
2019-05-18T16:18:23.146Z,27.09
2019-05-18T16:20:49.306Z,27.81
2019-05-18T16:23:15.544Z,27.41
2019-05-18T16:25:41.928Z,27.06
2019-05-18T16:28:08.085Z,27.21
2019-05-18T16:30:34.293Z,27.33
2019-05-18T16:33:00.487Z,27.87
2019-05-18T16:35:26.796Z,28.08
2019-05-18T16:37:53.048Z,28.47
2019-05-18T16:40:19.350Z,28.80
2019-05-18T16:42:46.609Z,29.00
2019-05-18T16:45:13.265Z,28.72
2019-05-18T16:47:39.541Z,28.93
2019-05-18T16:50:06.610Z,29.06
2019-05-18T16:52:32.805Z,28.28
2019-05-18T16:54:58.996Z,28.80
2019-05-18T16:57:25.314Z,29.08
2019-05-18T16:59:51.610Z,29.07
2019-05-18T17:02:30.650Z,29.09
2019-05-18T17:04:45.956Z,29.35
2019-05-18T17:07:12.163Z,29.35
2019-05-18T17:09:38.332Z,29.32
2019-05-18T17:12:04.504Z,29.73
2019-05-18T17:14:30.695Z,29.97
2019-05-18T17:16:56.956Z,30.76
2019-05-18T17:19:23.137Z,32.67
2019-05-18T17:21:49.345Z,33.09
2019-05-18T17:24:15.493Z,33.34
2019-05-18T17:26:52.196Z,33.77
2019-05-18T17:29:09.773Z,33.68
2019-05-18T17:31:35.939Z,33.69
2019-05-18T17:34:02.139Z,33.42
2019-05-18T17:36:28.335Z,34.07
2019-05-18T17:38:54.534Z,34.30
2019-05-18T17:41:20.716Z,34.56
2019-05-18T17:43:46.911Z,34.73
2019-05-18T17:46:13.090Z,34.93
2019-05-18T17:48:39.396Z,35.10
2019-05-18T17:51:05.620Z,35.81
2019-05-18T17:53:31.804Z,35.66
2019-05-18T17:55:57.992Z,35.19
2019-05-18T17:58:24.184Z,35.01
2019-05-18T18:00:50.351Z,34.71
2019-05-18T18:03:16.538Z,35.88
2019-05-18T18:05:42.739Z,37.29
2019-05-18T18:08:08.928Z,36.92
2019-05-18T18:10:35.100Z,36.50
2019-05-18T18:13:01.399Z,36.83
2019-05-18T18:15:27.548Z,38.14
2019-05-18T18:17:53.723Z,38.26
2019-05-18T18:20:21.835Z,38.24
2019-05-18T18:22:47.985Z,37.86
2019-05-18T18:25:14.171Z,38.02
2019-05-18T18:27:40.360Z,38.05
2019-05-18T18:30:08.020Z,37.97
2019-05-18T18:32:34.211Z,38.03
2019-05-18T18:35:00.448Z,37.73
2019-05-18T18:37:26.612Z,37.39
2019-05-18T18:39:52.983Z,37.83
2019-05-18T18:42:19.303Z,39.35
2019-05-18T18:44:45.467Z,39.37
2019-05-18T18:47:11.640Z,38.89
2019-05-18T18:49:37.853Z,38.10
2019-05-18T18:52:05.388Z,38.41
2019-05-18T18:54:31.584Z,38.84
2019-05-18T18:56:58.099Z,38.79
2019-05-18T18:59:24.271Z,38.95
2019-05-18T19:01:50.437Z,38.73
2019-05-18T19:04:18.584Z,38.69
2019-05-18T19:06:44.722Z,38.88
2019-05-18T19:09:11.008Z,39.20
2019-05-18T19:11:37.197Z,40.00
2019-05-18T19:14:05.179Z,40.56
2019-05-18T19:16:31.465Z,41.02
2019-05-18T19:18:57.691Z,40.05
2019-05-18T19:21:23.845Z,39.25
2019-05-18T19:23:50.026Z,38.59
2019-05-18T19:26:16.239Z,38.38
2019-05-18T19:28:42.402Z,39.10
2019-05-18T19:31:08.570Z,39.39
2019-05-18T19:33:34.778Z,40.25
2019-05-18T19:36:00.944Z,40.41
2019-05-18T19:38:27.080Z,40.00
2019-05-18T19:40:53.355Z,40.41
2019-05-18T19:43:19.512Z,40.77
2019-05-18T19:45:45.685Z,40.88
2019-05-18T19:48:11.885Z,40.39
2019-05-18T19:50:38.038Z,39.80
2019-05-18T19:53:04.197Z,39.86
2019-05-18T19:55:30.403Z,40.00
2019-05-18T19:58:08.143Z,40.66
2019-05-18T20:00:24.743Z,39.89
2019-05-18T20:02:50.963Z,40.06
2019-05-18T20:05:17.414Z,39.82
2019-05-18T20:07:43.586Z,39.62
2019-05-18T20:10:10.807Z,39.46
2019-05-18T20:12:36.966Z,39.67
2019-05-18T20:15:04.437Z,39.85
2019-05-18T20:17:30.646Z,39.63
2019-05-18T20:19:56.808Z,39.23
2019-05-18T20:22:22.976Z,38.64
2019-05-18T20:24:49.158Z,38.46
2019-05-18T20:27:15.317Z,38.37
2019-05-18T20:29:41.609Z,38.48
2019-05-18T20:32:07.818Z,38.45
2019-05-18T20:34:33.984Z,38.45
2019-05-18T20:37:00.151Z,38.46
2019-05-18T20:39:26.358Z,39.77
2019-05-18T20:41:52.730Z,40.11
2019-05-18T20:44:18.920Z,40.70
2019-05-18T20:46:45.125Z,40.38
2019-05-18T20:49:12.188Z,39.68
2019-05-18T20:51:38.349Z,39.67
2019-05-18T20:54:04.565Z,39.32
2019-05-18T20:56:30.730Z,39.08
2019-05-18T20:58:56.986Z,39.07
2019-05-18T21:01:23.205Z,38.82
2019-05-18T21:03:49.817Z,39.11
2019-05-18T21:06:15.984Z,39.10
2019-05-18T21:08:42.184Z,39.42
2019-05-18T21:11:08.350Z,39.68
2019-05-18T21:13:34.602Z,39.23
2019-05-18T21:16:00.795Z,40.69
2019-05-18T21:18:26.983Z,41.82
2019-05-18T21:20:53.130Z,41.65
2019-05-18T21:23:19.337Z,42.59
2019-05-18T21:25:45.514Z,42.64
2019-05-18T21:28:11.673Z,43.56
2019-05-18T21:30:38.045Z,42.21
2019-05-18T21:33:04.312Z,40.76
2019-05-18T21:35:30.471Z,42.28
2019-05-18T21:37:56.682Z,41.25
2019-05-18T21:40:25.916Z,42.48
2019-05-18T21:42:51.019Z,42.47
2019-05-18T21:45:17.328Z,42.43
2019-05-18T21:47:43.483Z,41.13
2019-05-18T21:50:09.947Z,41.95
2019-05-18T21:52:36.160Z,41.17
2019-05-18T21:55:06.293Z,41.06
2019-05-18T21:57:32.656Z,41.59
2019-05-18T21:59:58.864Z,42.37
2019-05-18T22:02:25.020Z,41.61
2019-05-18T22:04:51.493Z,41.79
2019-05-18T22:07:17.703Z,41.04
2019-05-18T22:09:43.882Z,41.05
2019-05-18T22:12:10.139Z,41.36
2019-05-18T22:14:36.441Z,40.80
2019-05-18T22:17:02.622Z,41.01
2019-05-18T22:19:28.873Z,41.49
2019-05-18T22:21:55.178Z,40.51
2019-05-18T22:24:21.351Z,40.96
2019-05-18T22:26:47.501Z,40.73
2019-05-18T22:29:13.692Z,41.64
2019-05-18T22:31:39.873Z,42.81
2019-05-18T22:34:06.056Z,41.47
2019-05-18T22:36:32.236Z,41.36
2019-05-18T22:38:58.413Z,42.61
2019-05-18T22:41:24.570Z,42.71
2019-05-18T22:43:50.812Z,42.90
2019-05-18T22:46:16.982Z,43.84
2019-05-18T22:48:43.137Z,42.96
2019-05-18T22:51:09.456Z,42.78
2019-05-18T22:53:35.631Z,42.64
2019-05-18T22:56:01.822Z,42.52
2019-05-18T22:58:27.989Z,42.36
2019-05-18T23:00:54.153Z,42.24
2019-05-18T23:03:20.312Z,41.88
2019-05-18T23:05:46.530Z,42.12
2019-05-18T23:08:12.703Z,43.17
2019-05-18T23:10:38.861Z,42.61
2019-05-18T23:13:05.054Z,42.44
2019-05-18T23:15:31.223Z,42.43
2019-05-18T23:17:57.382Z,43.45
2019-05-18T23:20:23.583Z,43.25
2019-05-18T23:22:49.748Z,43.14
2019-05-18T23:25:15.906Z,43.49
2019-05-18T23:27:42.108Z,43.16
2019-05-18T23:30:09.485Z,42.91
2019-05-18T23:32:35.663Z,43.13
2019-05-18T23:35:01.955Z,43.04
2019-05-18T23:37:28.142Z,42.78
2019-05-18T23:39:54.297Z,42.54
2019-05-18T23:42:20.495Z,43.43
2019-05-18T23:44:46.720Z,43.25
2019-05-18T23:47:12.892Z,42.61
2019-05-18T23:49:39.079Z,42.32
2019-05-18T23:52:05.231Z,42.98
2019-05-18T23:54:31.407Z,44.01
2019-05-18T23:56:57.603Z,44.51
2019-05-18T23:59:23.784Z,45.43
